Time;durP1;ratioP1;P1;durP2;ratioP2;P2;SDS_P1;SDS_P2;PMS_P1;PMS_P2;Temp;Humidity;BMP_temperature;BMP_pressure;BME280_temperature;BME280_humidity;BME280_pressure;Samples;Min_cycle;Max_cycle;Signal;HPM_P1;HPM_P2
2022/04/19 00:01:52;;;;;;;;;;;5.00;99.90;;;;;;5002330;28;20024;-72
2022/04/19 00:04:23;;;;;;;;;;;5.00;99.90;;;;;;5017366;28;20283;-72
2022/04/19 00:06:55;;;;;;;;;;;5.00;99.90;;;;;;4994324;28;20287;-71
2022/04/19 00:09:27;;;;;;;;;;;5.10;99.90;;;;;;4984533;28;19937;-71
2022/04/19 00:11:58;;;;;;;;;;;5.10;99.90;;;;;;4994288;28;20498;-72
2022/04/19 00:14:33;;;;;;;;;;;5.10;99.90;;;;;;5001316;28;20382;-71
2022/04/19 00:17:05;;;;;;;;;;;5.10;99.90;;;;;;5016311;28;20600;-72
2022/04/19 00:19:32;;;;;;;;;;;5.10;99.90;;;;;;4997949;28;19933;-71
2022/04/19 00:22:03;;;;;;;;;;;5.10;99.90;;;;;;4998704;28;19940;-72
2022/04/19 00:24:35;;;;;;;;;;;5.00;99.90;;;;;;4995504;28;20314;-73
2022/04/19 00:27:06;;;;;;;;;;;5.00;99.90;;;;;;5016039;28;19929;-72
2022/04/19 00:29:41;;;;;;;;;;;5.00;99.90;;;;;;4991664;28;20024;-72
2022/04/19 00:32:14;;;;;;;;;;;4.90;99.90;;;;;;4999445;28;19937;-71
2022/04/19 00:34:41;;;;;;;;;;;4.90;99.90;;;;;;4992269;28;19936;-71
2022/04/19 00:37:13;;;;;;;;;;;4.90;99.90;;;;;;5004800;28;19936;-72
2022/04/19 00:39:45;;;;;;;;;;;4.80;99.90;;;;;;5007320;28;19932;-72
2022/04/19 00:42:17;;;;;;;;;;;4.70;99.90;;;;;;4996942;28;20421;-72
2022/04/19 00:44:49;;;;;;;;;;;4.70;99.90;;;;;;5009095;28;19933;-72
2022/04/19 00:47:20;;;;;;;;;;;4.70;99.90;;;;;;5013495;28;19932;-72
2022/04/19 00:49:52;;;;;;;;;;;4.70;99.90;;;;;;4987632;28;19933;-71
2022/04/19 00:52:19;;;;;;;;;;;4.60;99.90;;;;;;5007814;28;19932;-71
2022/04/19 00:54:48;;;;;;;;;;;4.60;99.90;;;;;;5001444;28;19932;-72
2022/04/19 00:57:15;;;;;;;;;;;4.60;99.90;;;;;;4998544;28;19977;-72
2022/04/19 00:59:47;;;;;;;;;;;4.50;99.90;;;;;;5000743;28;19932;-71
2022/04/19 01:02:19;;;;;;;;;;;4.50;99.90;;;;;;4988584;28;20164;-72
2022/04/19 01:04:46;;;;;;;;;;;4.40;99.90;;;;;;4976038;28;20404;-71
2022/04/19 01:07:12;;;;;;;;;;;4.40;99.90;;;;;;5011172;28;20076;-72
2022/04/19 01:09:41;;;;;;;;;;;4.40;99.90;;;;;;5008076;28;20016;-72
2022/04/19 01:15:06;;;;;;;;;;;4.30;99.90;;;;;;5021223;28;19926;-72
2022/04/19 01:18:23;;;;;;;;;;;4.30;99.90;;;;;;4995180;28;19941;-70
2022/04/19 01:21:02;;;;;;;;;;;4.30;99.90;;;;;;4991841;28;20313;-70
2022/04/19 01:23:34;;;;;;;;;;;4.30;99.90;;;;;;5007707;28;20028;-70
2022/04/19 01:26:02;;;;;;;;;;;4.30;99.90;;;;;;5007758;28;19926;-70
2022/04/19 01:28:35;;;;;;;;;;;4.20;99.90;;;;;;4976315;28;20390;-71
2022/04/19 01:31:03;;;;;;;;;;;4.20;99.90;;;;;;4991638;28;19977;-70
2022/04/19 01:33:39;;;;;;;;;;;4.20;99.90;;;;;;4991195;28;19926;-70
2022/04/19 01:36:09;;;;;;;;;;;4.10;99.90;;;;;;5010729;28;19930;-70
2022/04/19 01:38:44;;;;;;;;;;;4.00;99.90;;;;;;4976699;28;19926;-71
2022/04/19 01:41:18;;;;;;;;;;;3.90;99.90;;;;;;5003741;28;19925;-70
2022/04/19 01:43:52;;;;;;;;;;;3.90;99.90;;;;;;5010570;28;20036;-70
2022/04/19 01:46:19;;;;;;;;;;;3.90;99.90;;;;;;4992385;28;19969;-71
2022/04/19 01:48:50;;;;;;;;;;;3.90;99.90;;;;;;4983555;28;20024;-71
2022/04/19 01:51:22;;;;;;;;;;;4.00;99.90;;;;;;5014728;28;20415;-71
2022/04/19 01:53:55;;;;;;;;;;;4.00;99.90;;;;;;5014078;28;19929;-70
2022/04/19 01:56:27;;;;;;;;;;;4.00;99.90;;;;;;4991848;28;19985;-70
2022/04/19 01:59:15;;;;;;;;;;;4.00;99.90;;;;;;4984109;28;19937;-71
2022/04/19 02:02:00;;;;;;;;;;;3.90;99.90;;;;;;5028547;28;19947;-71
2022/04/19 02:04:32;;;;;;;;;;;3.90;99.90;;;;;;5014229;28;19925;-71
2022/04/19 02:06:59;;;;;;;;;;;3.80;99.90;;;;;;5030320;28;19929;-70
2022/04/19 02:09:30;;;;;;;;;;;3.80;99.90;;;;;;5001160;28;19926;-71
2022/04/19 02:12:04;;;;;;;;;;;3.80;99.90;;;;;;5013825;28;20517;-70
2022/04/19 02:15:03;;;;;;;;;;;3.80;99.90;;;;;;4991751;28;20426;-70
2022/04/19 02:17:30;;;;;;;;;;;3.80;99.90;;;;;;4994481;28;20384;-70
2022/04/19 02:20:06;;;;;;;;;;;3.70;99.90;;;;;;5013029;28;20008;-70
2022/04/19 02:22:39;;;;;;;;;;;3.70;99.90;;;;;;5001804;28;20358;-70
2022/04/19 02:25:11;;;;;;;;;;;3.60;99.90;;;;;;4994429;28;19925;-70
2022/04/19 02:27:44;;;;;;;;;;;3.70;99.90;;;;;;5002620;28;19953;-72
2022/04/19 02:30:15;;;;;;;;;;;3.70;99.90;;;;;;4997873;28;20428;-71
2022/04/19 02:32:52;;;;;;;;;;;3.70;99.90;;;;;;4983694;28;20401;-71
2022/04/19 02:35:20;;;;;;;;;;;3.70;99.90;;;;;;4993826;28;19965;-70
2022/04/19 02:37:54;;;;;;;;;;;3.60;99.90;;;;;;4994429;28;19926;-71
2022/04/19 02:40:24;;;;;;;;;;;3.60;99.90;;;;;;4994013;28;19940;-71
2022/04/19 02:42:59;;;;;;;;;;;3.60;99.90;;;;;;4998324;28;19937;-71
2022/04/19 02:45:27;;;;;;;;;;;3.50;99.90;;;;;;5010119;28;20342;-71
2022/04/19 02:48:03;;;;;;;;;;;3.50;99.90;;;;;;4978692;28;19926;-70
2022/04/19 02:50:39;;;;;;;;;;;3.50;99.90;;;;;;4994851;28;20363;-71
2022/04/19 02:53:11;;;;;;;;;;;3.50;99.90;;;;;;4993541;28;19937;-70
2022/04/19 02:55:43;;;;;;;;;;;3.50;99.90;;;;;;4994034;28;19925;-71
2022/04/19 02:58:14;;;;;;;;;;;3.40;99.90;;;;;;4993419;28;19957;-70
2022/04/19 03:00:46;;;;;;;;;;;3.40;99.90;;;;;;4978393;28;19926;-70
2022/04/19 03:03:18;;;;;;;;;;;3.40;99.90;;;;;;4994688;28;20025;-71
2022/04/19 03:05:52;;;;;;;;;;;3.40;99.90;;;;;;5010250;28;20295;-71
2022/04/19 03:08:25;;;;;;;;;;;3.40;99.90;;;;;;4993856;28;20012;-70
2022/04/19 03:10:58;;;;;;;;;;;3.30;99.90;;;;;;4978151;28;19933;-71
2022/04/19 03:13:32;;;;;;;;;;;3.30;99.90;;;;;;5009711;28;20293;-70
2022/04/19 03:16:04;;;;;;;;;;;3.30;99.90;;;;;;4979508;28;19980;-70
2022/04/19 03:18:37;;;;;;;;;;;3.40;99.90;;;;;;5013030;28;20004;-70
2022/04/19 03:21:10;;;;;;;;;;;3.40;99.90;;;;;;5013513;28;19976;-71
2022/04/19 03:29:24;;;;;;;;;;;3.30;99.90;;;;;;4994621;28;19926;-71
2022/04/19 03:31:56;;;;;;;;;;;3.30;99.90;;;;;;5009834;28;19930;-70
2022/04/19 03:34:27;;;;;;;;;;;3.30;99.90;;;;;;4993603;28;20052;-75
2022/04/19 03:37:00;;;;;;;;;;;3.30;99.90;;;;;;4997868;28;20032;-70
2022/04/19 03:39:32;;;;;;;;;;;3.30;99.90;;;;;;4990603;28;19972;-71
2022/04/19 03:41:59;;;;;;;;;;;3.30;99.90;;;;;;5025368;28;19930;-71
2022/04/19 03:44:31;;;;;;;;;;;3.20;99.90;;;;;;4996579;28;19936;-70
2022/04/19 03:47:09;;;;;;;;;;;3.00;99.90;;;;;;5010704;28;20020;-71
2022/04/19 03:49:43;;;;;;;;;;;3.00;99.90;;;;;;5013094;28;20104;-70
2022/04/19 03:52:15;;;;;;;;;;;2.90;99.90;;;;;;5021209;28;20353;-71
2022/04/19 03:54:47;;;;;;;;;;;2.90;99.90;;;;;;5021396;28;20011;-71
2022/04/19 03:57:19;;;;;;;;;;;2.80;99.90;;;;;;4986429;28;19932;-71
2022/04/19 03:59:50;;;;;;;;;;;2.80;99.90;;;;;;4983979;28;19976;-71
2022/04/19 04:02:26;;;;;;;;;;;2.70;99.90;;;;;;4997263;28;19957;-70
2022/04/19 04:04:58;;;;;;;;;;;2.70;99.90;;;;;;5012397;28;19948;-70
2022/04/19 04:07:30;;;;;;;;;;;2.80;99.90;;;;;;5009155;28;19926;-71
2022/04/19 04:09:56;;;;;;;;;;;2.90;99.90;;;;;;4992079;28;19937;-71
2022/04/19 04:12:28;;;;;;;;;;;3.00;99.90;;;;;;4992554;28;19930;-71
2022/04/19 04:15:03;;;;;;;;;;;3.00;99.90;;;;;;5009189;28;19930;-71
2022/04/19 04:17:34;;;;;;;;;;;3.20;99.90;;;;;;5006641;28;19925;-71
2022/04/19 04:20:07;;;;;;;;;;;3.10;99.90;;;;;;5013585;28;19980;-71
2022/04/19 04:22:38;;;;;;;;;;;3.10;99.90;;;;;;4992606;28;19925;-71
2022/04/19 04:25:05;;;;;;;;;;;3.10;99.90;;;;;;4994070;28;19926;-71
2022/04/19 04:27:32;;;;;;;;;;;3.10;99.90;;;;;;5011876;28;20020;-70
2022/04/19 04:30:06;;;;;;;;;;;3.00;99.90;;;;;;5009010;28;19925;-71
2022/04/19 04:32:38;;;;;;;;;;;3.00;99.90;;;;;;4993013;28;20386;-70
2022/04/19 04:35:11;;;;;;;;;;;3.10;99.90;;;;;;4992713;28;19930;-70
2022/04/19 04:37:42;;;;;;;;;;;3.10;99.90;;;;;;5005351;28;19925;-70
2022/04/19 04:40:15;;;;;;;;;;;3.20;99.90;;;;;;5010647;28;19926;-70
2022/04/19 04:42:56;;;;;;;;;;;3.20;99.90;;;;;;5010825;28;20061;-71
2022/04/19 04:45:29;;;;;;;;;;;3.20;99.90;;;;;;5012000;28;19925;-71
2022/04/19 04:50:46;;;;;;;;;;;3.20;99.90;;;;;;5027291;28;20286;-71
2022/04/19 04:53:18;;;;;;;;;;;3.30;99.90;;;;;;4992434;28;19980;-70
2022/04/19 04:56:13;;;;;;;;;;;3.30;99.90;;;;;;4992497;28;20016;-71
2022/04/19 04:58:44;;;;;;;;;;;3.30;99.90;;;;;;5011367;28;19969;-70
2022/04/19 05:01:16;;;;;;;;;;;3.30;99.90;;;;;;5007733;28;20524;-71
2022/04/19 05:03:43;;;;;;;;;;;3.30;99.90;;;;;;5008699;28;20346;-70
2022/04/19 05:06:15;;;;;;;;;;;3.30;99.90;;;;;;5020371;28;19961;-71
2022/04/19 05:08:47;;;;;;;;;;;3.30;99.90;;;;;;5023124;28;19981;-70
2022/04/19 05:11:15;;;;;;;;;;;3.30;99.90;;;;;;5010574;28;19931;-70
2022/04/19 05:13:46;;;;;;;;;;;3.30;99.90;;;;;;5004440;28;20433;-70
2022/04/19 05:16:14;;;;;;;;;;;3.40;99.90;;;;;;5024032;28;19927;-71
2022/04/19 05:18:46;;;;;;;;;;;3.30;99.90;;;;;;5009877;28;19929;-70
2022/04/19 05:21:13;;;;;;;;;;;3.30;99.90;;;;;;5011640;28;19926;-70
2022/04/19 05:23:40;;;;;;;;;;;3.30;99.90;;;;;;5013543;28;19968;-71
2022/04/19 05:26:16;;;;;;;;;;;3.30;99.90;;;;;;5029596;28;19929;-71
2022/04/19 05:28:48;;;;;;;;;;;3.30;99.90;;;;;;5030680;28;20615;-71
2022/04/19 05:31:20;;;;;;;;;;;3.40;99.90;;;;;;5017464;28;19926;-71
2022/04/19 05:33:53;;;;;;;;;;;3.40;99.90;;;;;;4996318;28;19932;-71
2022/04/19 05:36:19;;;;;;;;;;;3.50;99.90;;;;;;5015142;28;20565;-71
2022/04/19 05:38:52;;;;;;;;;;;3.60;99.90;;;;;;4996035;28;19932;-71
2022/04/19 05:41:23;;;;;;;;;;;3.60;99.90;;;;;;5028642;28;19926;-71
2022/04/19 05:43:52;;;;;;;;;;;3.60;99.90;;;;;;5031566;28;19976;-72
2022/04/19 05:46:23;;;;;;;;;;;3.60;99.90;;;;;;5015251;28;20035;-72
2022/04/19 05:48:55;;;;;;;;;;;3.70;99.90;;;;;;5031744;28;19926;-71
2022/04/19 05:51:27;;;;;;;;;;;3.70;99.90;;;;;;5012565;28;19925;-73
2022/04/19 05:53:59;;;;;;;;;;;3.70;99.90;;;;;;4995969;28;20579;-71
2022/04/19 05:56:33;;;;;;;;;;;3.90;99.90;;;;;;5013018;28;20394;-71
2022/04/19 05:59:05;;;;;;;;;;;4.10;99.90;;;;;;5013009;28;19925;-71
2022/04/19 06:07:12;;;;;;;;;;;4.30;99.90;;;;;;5015265;28;19925;-72
2022/04/19 06:09:44;;;;;;;;;;;4.40;99.90;;;;;;4988131;28;19929;-71
2022/04/19 06:12:16;;;;;;;;;;;4.50;99.90;;;;;;5012309;28;19933;-71
2022/04/19 06:14:49;;;;;;;;;;;4.50;99.90;;;;;;5006236;28;19926;-71
2022/04/19 06:17:25;;;;;;;;;;;4.60;99.90;;;;;;5014174;28;19925;-71
2022/04/19 06:19:51;;;;;;;;;;;4.70;99.90;;;;;;5013901;28;19956;-71
2022/04/19 06:22:23;;;;;;;;;;;4.70;99.90;;;;;;5010832;28;20385;-72
2022/04/19 06:25:01;;;;;;;;;;;4.80;99.90;;;;;;4995843;28;19929;-71
2022/04/19 06:27:33;;;;;;;;;;;4.90;99.90;;;;;;5014475;28;19925;-71
2022/04/19 06:30:06;;;;;;;;;;;5.00;99.90;;;;;;5030818;28;19925;-71
2022/04/19 06:32:40;;;;;;;;;;;5.10;99.90;;;;;;5013370;28;19929;-71
2022/04/19 06:35:12;;;;;;;;;;;5.10;99.90;;;;;;5030743;28;19992;-71
2022/04/19 06:37:44;;;;;;;;;;;5.20;99.90;;;;;;5010610;28;19926;-71
2022/04/19 06:40:16;;;;;;;;;;;5.30;99.90;;;;;;5011236;28;19932;-71
2022/04/19 06:42:47;;;;;;;;;;;5.40;99.90;;;;;;5011796;28;19933;-71
2022/04/19 06:45:19;;;;;;;;;;;5.50;99.90;;;;;;5014542;28;19926;-71
2022/04/19 06:48:01;;;;;;;;;;;5.60;99.90;;;;;;5010785;28;20409;-70
2022/04/19 06:50:34;;;;;;;;;;;5.70;99.90;;;;;;4994458;28;19925;-70
2022/04/19 06:53:11;;;;;;;;;;;5.80;99.90;;;;;;5009633;28;19926;-71
2022/04/19 06:55:48;;;;;;;;;;;5.90;99.90;;;;;;5007408;28;20028;-72
2022/04/19 06:58:16;;;;;;;;;;;6.00;99.90;;;;;;5028137;28;19925;-71
2022/04/19 07:00:48;;;;;;;;;;;6.10;99.90;;;;;;5008776;28;19934;-71
2022/04/19 07:03:15;;;;;;;;;;;6.30;99.90;;;;;;5015929;28;19926;-71
2022/04/19 07:06:16;;;;;;;;;;;6.60;99.90;;;;;;4994087;28;19926;-72
2022/04/19 07:08:48;;;;;;;;;;;7.00;99.90;;;;;;5010235;28;19925;-71
2022/04/19 07:11:17;;;;;;;;;;;7.30;99.90;;;;;;4994234;28;19933;-72
2022/04/19 07:14:05;;;;;;;;;;;7.70;99.90;;;;;;4995291;28;20010;-71
2022/04/19 07:16:52;;;;;;;;;;;8.00;99.90;;;;;;5002104;28;19933;-72
2022/04/19 07:19:24;;;;;;;;;;;8.20;99.90;;;;;;4993393;28;19925;-71
2022/04/19 07:27:50;;;;;;;;;;;8.70;99.90;;;;;;5009801;28;20394;-72
2022/04/19 07:30:23;;;;;;;;;;;8.90;99.90;;;;;;5012757;28;19932;-71
2022/04/19 07:32:55;;;;;;;;;;;9.00;99.90;;;;;;5011331;28;19925;-71
2022/04/19 07:35:30;;;;;;;;;;;9.10;99.90;;;;;;4983644;28;20424;-72
2022/04/19 07:38:02;;;;;;;;;;;9.10;99.90;;;;;;5012568;28;19933;-72
2022/04/19 07:40:46;;;;;;;;;;;9.20;99.90;;;;;;5015177;28;19925;-71
2022/04/19 07:43:13;;;;;;;;;;;9.30;99.90;;;;;;5012314;28;19947;-72
2022/04/19 07:45:44;;;;;;;;;;;9.30;99.90;;;;;;5010601;28;19925;-71
2022/04/19 07:48:18;;;;;;;;;;;9.40;99.90;;;;;;4996631;28;20008;-71
2022/04/19 07:50:50;;;;;;;;;;;9.40;99.90;;;;;;5012781;28;20350;-71
2022/04/19 07:53:22;;;;;;;;;;;9.60;99.90;;;;;;5007448;28;20019;-71
2022/04/19 07:55:57;;;;;;;;;;;9.70;99.90;;;;;;5010925;28;19926;-71
2022/04/19 07:58:29;;;;;;;;;;;9.80;99.90;;;;;;5028445;28;19929;-71
2022/04/19 08:00:56;;;;;;;;;;;9.90;99.90;;;;;;5011851;28;19929;-71
2022/04/19 08:03:23;;;;;;;;;;;10.10;99.90;;;;;;5012016;28;20391;-71
2022/04/19 08:05:54;;;;;;;;;;;10.20;99.90;;;;;;5006788;28;20648;-71
2022/04/19 08:08:21;;;;;;;;;;;10.30;99.90;;;;;;5008791;28;19980;-71
2022/04/19 08:10:53;;;;;;;;;;;10.40;99.90;;;;;;4976807;28;20362;-72
2022/04/19 08:13:25;;;;;;;;;;;10.50;99.90;;;;;;4991343;28;20033;-72
2022/04/19 08:15:52;;;;;;;;;;;10.60;99.90;;;;;;4992042;28;19929;-72
2022/04/19 08:18:24;;;;;;;;;;;10.70;99.90;;;;;;4994197;28;19925;-72
2022/04/19 08:20:53;;;;;;;;;;;10.80;99.90;;;;;;4991978;28;19926;-71
2022/04/19 08:23:24;;;;;;;;;;;10.80;99.90;;;;;;5008298;28;19929;-71
2022/04/19 08:26:00;;;;;;;;;;;10.90;99.90;;;;;;4984864;28;19933;-71
2022/04/19 08:28:32;;;;;;;;;;;11.00;99.90;;;;;;5011129;28;19925;-72
2022/04/19 08:31:04;;;;;;;;;;;11.10;99.90;;;;;;4999991;28;20116;-71
2022/04/19 08:33:36;;;;;;;;;;;11.20;99.90;;;;;;5010792;28;19929;-71
2022/04/19 08:36:03;;;;;;;;;;;11.30;99.90;;;;;;4991919;28;19981;-71
2022/04/19 08:38:30;;;;;;;;;;;11.40;99.90;;;;;;5007886;28;19973;-71
2022/04/19 08:40:58;;;;;;;;;;;11.50;99.90;;;;;;5008326;28;20374;-71
2022/04/19 08:43:30;;;;;;;;;;;11.60;99.90;;;;;;5007957;28;20424;-71
2022/04/19 08:46:02;;;;;;;;;;;11.60;99.90;;;;;;4979819;28;19931;-71
2022/04/19 08:48:35;;;;;;;;;;;11.70;99.90;;;;;;4992961;28;19932;-71
2022/04/19 08:51:10;;;;;;;;;;;11.80;99.90;;;;;;5006034;28;20036;-71
2022/04/19 08:59:26;;;;;;;;;;;12.10;96.90;;;;;;5007282;28;19925;-69
2022/04/19 09:01:59;;;;;;;;;;;12.20;96.90;;;;;;5007616;28;19926;-68
2022/04/19 09:04:30;;;;;;;;;;;12.30;96.80;;;;;;5006536;28;20460;-68
2022/04/19 09:07:02;;;;;;;;;;;12.50;96.00;;;;;;4994619;28;19932;-68
2022/04/19 09:09:30;;;;;;;;;;;12.60;95.10;;;;;;5011663;28;20557;-69
2022/04/19 09:12:11;;;;;;;;;;;12.60;93.40;;;;;;5000621;28;19933;-70
2022/04/19 09:15:06;;;;;;;;;;;12.70;93.10;;;;;;5008155;28;19925;-69
2022/04/19 09:17:42;;;;;;;;;;;12.80;93.00;;;;;;5007699;28;19926;-69
2022/04/19 09:20:15;;;;;;;;;;;12.90;92.80;;;;;;5012247;28;20302;-69
2022/04/19 09:22:50;;;;;;;;;;;13.00;93.20;;;;;;5000589;28;20325;-69
2022/04/19 09:25:26;;;;;;;;;;;13.00;91.20;;;;;;5010197;28;19926;-69
2022/04/19 09:27:56;;;;;;;;;;;13.10;91.10;;;;;;5007817;28;19926;-70
2022/04/19 09:30:29;;;;;;;;;;;13.20;91.70;;;;;;5007776;28;20383;-69
2022/04/19 09:33:02;;;;;;;;;;;13.30;91.40;;;;;;5009881;28;19925;-69
2022/04/19 09:35:30;;;;;;;;;;;13.40;91.30;;;;;;5027120;28;20012;-69
2022/04/19 09:38:02;;;;;;;;;;;13.50;90.80;;;;;;5011512;28;19936;-69
2022/04/19 09:40:33;;;;;;;;;;;13.60;89.30;;;;;;5002683;28;19925;-69
2022/04/19 09:43:26;;;;;;;;;;;13.60;89.60;;;;;;5008574;28;19940;-69
2022/04/19 09:45:59;;;;;;;;;;;13.70;89.60;;;;;;5007317;28;20304;-69
2022/04/19 09:48:31;;;;;;;;;;;13.70;90.10;;;;;;5012214;28;19925;-69
2022/04/19 09:51:13;;;;;;;;;;;13.80;90.00;;;;;;5003523;28;20392;-70
2022/04/19 09:53:45;;;;;;;;;;;13.90;86.30;;;;;;5008466;28;19933;-69
2022/04/19 09:56:19;;;;;;;;;;;14.00;87.40;;;;;;5010130;28;19932;-69
2022/04/19 09:58:46;;;;;;;;;;;14.10;82.90;;;;;;5007757;28;20298;-69
2022/04/19 10:10:06;;;;;;;;;;;14.20;80.90;;;;;;5007486;28;19932;-69
2022/04/19 10:12:38;;;;;;;;;;;14.30;79.80;;;;;;5010929;28;19925;-69
2022/04/19 10:15:06;;;;;;;;;;;14.30;78.70;;;;;;5000004;28;20025;-69
2022/04/19 10:17:38;;;;;;;;;;;14.40;77.70;;;;;;4995797;28;19926;-70
2022/04/19 10:20:06;;;;;;;;;;;14.50;76.00;;;;;;5005513;28;20024;-70
2022/04/19 10:22:44;;;;;;;;;;;14.50;75.90;;;;;;5026585;28;20461;-69
2022/04/19 10:25:17;;;;;;;;;;;14.60;76.80;;;;;;5014008;28;19968;-69
2022/04/19 10:28:02;;;;;;;;;;;14.60;78.90;;;;;;5021449;28;19994;-69
2022/04/19 10:30:37;;;;;;;;;;;14.70;76.90;;;;;;4994175;28;19926;-70
2022/04/19 10:33:28;;;;;;;;;;;14.80;76.40;;;;;;5026407;28;20011;-70
2022/04/19 10:36:10;;;;;;;;;;;14.90;76.70;;;;;;5010283;28;19929;-70
2022/04/19 10:38:43;;;;;;;;;;;15.10;77.00;;;;;;5013533;28;19925;-70
2022/04/19 10:41:33;;;;;;;;;;;15.30;75.30;;;;;;5014530;28;19929;-70
2022/04/19 10:44:19;;;;;;;;;;;15.20;72.90;;;;;;5013613;28;19933;-70
2022/04/19 10:47:05;;;;;;;;;;;15.00;72.90;;;;;;5010770;28;19947;-70
2022/04/19 10:49:49;;;;;;;;;;;15.00;75.20;;;;;;4997438;28;19931;-70
2022/04/19 10:52:39;;;;;;;;;;;15.10;74.80;;;;;;5009578;28;19926;-70
2022/04/19 10:55:18;;;;;;;;;;;15.20;74.70;;;;;;5012763;28;19933;-70
2022/04/19 10:58:06;;;;;;;;;;;15.20;71.60;;;;;;5009318;28;19936;-69
2022/04/19 11:00:38;;;;;;;;;;;15.40;74.70;;;;;;4990441;28;19926;-69
2022/04/19 11:03:18;;;;;;;;;;;15.70;74.60;;;;;;5009211;28;19933;-69
2022/04/19 11:05:46;;;;;;;;;;;15.70;73.60;;;;;;4997098;28;19926;-69
2022/04/19 11:08:26;;;;;;;;;;;15.80;73.40;;;;;;4996447;28;19949;-69
2022/04/19 11:10:59;;;;;;;;;;;15.90;72.90;;;;;;4998997;28;19925;-70
2022/04/19 11:13:31;;;;;;;;;;;15.90;70.40;;;;;;5006294;28;19932;-69
2022/04/19 11:16:13;;;;;;;;;;;15.90;69.40;;;;;;5011836;28;19926;-70
2022/04/19 11:18:45;;;;;;;;;;;15.90;71.50;;;;;;5008600;28;19926;-69
2022/04/19 11:21:48;;;;;;;;;;;15.90;70.10;;;;;;5009697;28;19936;-69
2022/04/19 11:24:34;;;;;;;;;;;16.10;69.80;;;;;;5006315;28;19931;-69
2022/04/19 11:27:05;;;;;;;;;;;16.20;69.60;;;;;;5009621;28;20032;-69
2022/04/19 11:29:47;;;;;;;;;;;16.30;67.80;;;;;;4995318;28;20086;-69
2022/04/19 11:32:21;;;;;;;;;;;16.40;67.20;;;;;;5011675;28;20400;-70
2022/04/19 11:34:56;;;;;;;;;;;16.30;67.50;;;;;;5010256;28;19925;-69
2022/04/19 11:37:32;;;;;;;;;;;15.90;66.00;;;;;;4996604;28;20864;-69
2022/04/19 11:48:33;;;;;;;;;;;15.80;66.40;;;;;;5003609;28;20509;-69
2022/04/19 11:51:05;;;;;;;;;;;15.80;66.70;;;;;;5011085;28;19970;-69
2022/04/19 11:53:31;;;;;;;;;;;15.90;66.40;;;;;;5001497;28;19926;-70
2022/04/19 11:55:59;;;;;;;;;;;15.90;64.10;;;;;;5010843;28;19932;-69
2022/04/19 11:58:31;;;;;;;;;;;16.00;64.20;;;;;;5003068;28;19925;-69
2022/04/19 12:01:04;;;;;;;;;;;16.10;63.70;;;;;;5011616;28;19936;-70
2022/04/19 12:03:36;;;;;;;;;;;16.10;64.10;;;;;;5021553;28;20426;-68
2022/04/19 12:06:09;;;;;;;;;;;16.10;63.70;;;;;;5011346;28;20382;-70
2022/04/19 12:08:41;;;;;;;;;;;16.20;64.20;;;;;;5011547;28;19932;-70
2022/04/19 12:11:29;;;;;;;;;;;16.40;64.90;;;;;;5024117;28;20312;-69
2022/04/19 12:14:03;;;;;;;;;;;16.60;64.50;;;;;;4993133;28;19934;-69
2022/04/19 12:16:36;;;;;;;;;;;16.60;61.50;;;;;;5012473;28;19925;-69
2022/04/19 12:19:09;;;;;;;;;;;16.80;62.70;;;;;;5012734;28;20324;-70
2022/04/19 12:21:43;;;;;;;;;;;16.90;64.20;;;;;;4980114;28;19925;-71
2022/04/19 12:24:25;;;;;;;;;;;17.10;64.30;;;;;;5018621;28;20618;-71
2022/04/19 12:27:08;;;;;;;;;;;17.20;60.50;;;;;;5003516;28;19947;-69
2022/04/19 12:29:56;;;;;;;;;;;17.20;60.00;;;;;;5007791;28;19959;-70
2022/04/19 12:32:50;;;;;;;;;;;17.20;58.80;;;;;;5025157;28;19932;-70
2022/04/19 12:35:34;;;;;;;;;;;17.30;59.10;;;;;;5005553;28;19925;-70
2022/04/19 12:38:06;;;;;;;;;;;17.30;59.20;;;;;;5008158;28;19968;-69
2022/04/19 12:40:34;;;;;;;;;;;17.20;58.60;;;;;;4992725;28;19930;-69
2022/04/19 12:43:06;;;;;;;;;;;17.20;58.00;;;;;;4994815;28;19948;-70
2022/04/19 12:45:39;;;;;;;;;;;17.00;57.50;;;;;;5011222;28;19925;-69
2022/04/19 12:48:21;;;;;;;;;;;17.10;58.60;;;;;;5020230;28;19925;-70
2022/04/19 12:51:00;;;;;;;;;;;17.20;60.40;;;;;;5013030;28;20024;-70
2022/04/19 12:53:36;;;;;;;;;;;17.40;62.90;;;;;;5010634;28;20432;-70
2022/04/19 12:56:39;;;;;;;;;;;17.60;59.20;;;;;;4999654;28;20387;-69
2022/04/19 12:59:10;;;;;;;;;;;17.60;57.60;;;;;;5008934;28;19929;-69
2022/04/19 13:01:44;;;;;;;;;;;17.30;56.80;;;;;;5011412;28;20008;-70
2022/04/19 13:04:15;;;;;;;;;;;17.00;56.00;;;;;;5003585;28;19987;-69
2022/04/19 13:12:24;;;;;;;;;;;17.10;59.60;;;;;;5009826;28;20020;-70
2022/04/19 13:14:57;;;;;;;;;;;17.40;59.50;;;;;;5005041;28;20744;-69
2022/04/19 13:17:32;;;;;;;;;;;17.40;57.70;;;;;;4990633;28;19925;-69
2022/04/19 13:20:05;;;;;;;;;;;17.40;57.80;;;;;;5009860;28;20287;-70
2022/04/19 13:22:36;;;;;;;;;;;17.50;57.00;;;;;;5005044;28;19926;-69
2022/04/19 13:25:08;;;;;;;;;;;17.40;56.00;;;;;;5009221;28;19929;-69
2022/04/19 13:27:40;;;;;;;;;;;17.40;55.70;;;;;;5012365;28;19932;-70
2022/04/19 13:30:11;;;;;;;;;;;17.50;56.00;;;;;;5016210;28;20289;-69
2022/04/19 13:32:43;;;;;;;;;;;17.60;55.60;;;;;;5008648;28;19929;-69
2022/04/19 13:35:15;;;;;;;;;;;17.60;55.30;;;;;;5002645;28;19925;-70
2022/04/19 13:40:37;;;;;;;;;;;17.90;56.40;;;;;;4993118;28;19930;-69
2022/04/19 13:43:08;;;;;;;;;;;17.90;55.60;;;;;;5001869;28;19937;-69
2022/04/19 13:45:40;;;;;;;;;;;18.00;57.70;;;;;;5000800;28;19929;-69
2022/04/19 13:48:06;;;;;;;;;;;18.00;54.80;;;;;;5007425;28;20241;-70
2022/04/19 13:50:38;;;;;;;;;;;17.90;54.00;;;;;;5021387;28;19929;-70
2022/04/19 13:53:10;;;;;;;;;;;17.80;54.50;;;;;;5004556;28;20309;-69
2022/04/19 13:55:36;;;;;;;;;;;17.80;54.50;;;;;;5008026;28;19932;-69
2022/04/19 13:58:10;;;;;;;;;;;17.50;55.60;;;;;;5001095;28;19929;-70
2022/04/19 14:00:41;;;;;;;;;;;17.40;55.30;;;;;;5024497;28;19961;-73
2022/04/19 14:03:13;;;;;;;;;;;17.40;56.10;;;;;;5000498;28;19929;-69
2022/04/19 14:05:44;;;;;;;;;;;17.30;54.80;;;;;;5008751;28;19930;-70
2022/04/19 14:08:16;;;;;;;;;;;17.10;56.40;;;;;;4996186;28;19937;-69
2022/04/19 14:10:48;;;;;;;;;;;17.30;55.90;;;;;;5008313;28;19929;-70
2022/04/19 14:13:19;;;;;;;;;;;17.70;54.80;;;;;;5004445;28;19926;-68
2022/04/19 14:15:51;;;;;;;;;;;17.80;54.90;;;;;;5003096;28;19934;-70
2022/04/19 14:18:23;;;;;;;;;;;17.90;55.80;;;;;;5006227;28;19936;-70
2022/04/19 14:20:55;;;;;;;;;;;18.00;55.00;;;;;;5012629;28;19932;-70
2022/04/19 14:23:27;;;;;;;;;;;17.90;53.10;;;;;;5004244;28;19925;-70
2022/04/19 14:25:59;;;;;;;;;;;17.80;53.40;;;;;;5019254;28;19926;-70
2022/04/19 14:34:10;;;;;;;;;;;18.10;54.70;;;;;;5002524;28;20297;-70
2022/04/19 14:36:42;;;;;;;;;;;18.40;55.20;;;;;;5007758;28;19926;-70
2022/04/19 14:39:14;;;;;;;;;;;18.70;55.10;;;;;;5000389;28;19925;-70
2022/04/19 14:41:45;;;;;;;;;;;18.80;55.10;;;;;;5003650;28;19941;-68
2022/04/19 14:44:17;;;;;;;;;;;18.70;53.40;;;;;;5005249;28;19925;-70
2022/04/19 14:46:49;;;;;;;;;;;18.90;53.80;;;;;;5006326;28;19932;-72
2022/04/19 14:49:20;;;;;;;;;;;19.10;53.90;;;;;;5018819;28;19936;-69
2022/04/19 14:54:32;;;;;;;;;;;19.20;51.80;;;;;;5006461;28;19925;-71
2022/04/19 14:57:04;;;;;;;;;;;19.10;52.50;;;;;;5010396;28;19925;-70
2022/04/19 14:59:36;;;;;;;;;;;19.20;52.80;;;;;;5006652;28;19954;-70
2022/04/19 15:02:07;;;;;;;;;;;19.00;51.70;;;;;;5005712;28;19930;-70
2022/04/19 15:04:39;;;;;;;;;;;18.90;52.40;;;;;;5004595;28;19925;-70
2022/04/19 15:07:11;;;;;;;;;;;18.70;53.20;;;;;;5003919;28;19925;-70
2022/04/19 15:09:43;;;;;;;;;;;18.60;52.10;;;;;;5000689;28;19936;-70
2022/04/19 15:12:16;;;;;;;;;;;18.80;53.30;;;;;;5003615;28;19933;-70
2022/04/19 15:14:48;;;;;;;;;;;18.90;51.40;;;;;;5004405;28;19934;-70
2022/04/19 15:17:14;;;;;;;;;;;19.30;51.90;;;;;;5001296;28;19969;-70
2022/04/19 15:19:46;;;;;;;;;;;19.40;52.20;;;;;;5001504;28;19936;-71
2022/04/19 15:22:18;;;;;;;;;;;19.60;51.50;;;;;;5003557;28;19929;-70
2022/04/19 15:24:49;;;;;;;;;;;19.70;51.90;;;;;;5008084;28;19932;-70
2022/04/19 15:27:21;;;;;;;;;;;19.70;50.10;;;;;;5005462;28;20016;-70
2022/04/19 15:29:53;;;;;;;;;;;19.70;50.50;;;;;;5000714;28;19937;-70
2022/04/19 15:32:24;;;;;;;;;;;19.60;50.70;;;;;;5002335;28;19929;-69
2022/04/19 15:34:56;;;;;;;;;;;19.60;50.70;;;;;;4997535;28;19929;-70
2022/04/19 15:37:28;;;;;;;;;;;19.70;50.70;;;;;;5006348;28;19929;-71
2022/04/19 15:39:59;;;;;;;;;;;19.90;50.10;;;;;;5007475;28;19969;-69
2022/04/19 15:42:31;;;;;;;;;;;19.60;50.30;;;;;;5003290;28;20020;-71
2022/04/19 15:45:09;;;;;;;;;;;19.80;50.10;;;;;;5019974;28;20385;-74
2022/04/19 15:47:41;;;;;;;;;;;20.00;49.90;;;;;;5002277;28;19930;-70
2022/04/19 15:50:13;;;;;;;;;;;19.70;48.70;;;;;;5005566;28;20027;-70
2022/04/19 15:52:45;;;;;;;;;;;19.80;49.90;;;;;;4999850;28;20302;-72
2022/04/19 15:55:17;;;;;;;;;;;19.90;49.80;;;;;;5003623;28;19926;-71
2022/04/19 15:57:49;;;;;;;;;;;20.30;50.00;;;;;;5004310;28;19968;-70
2022/04/19 16:00:21;;;;;;;;;;;20.60;49.50;;;;;;5008413;28;19933;-71
2022/04/19 16:02:52;;;;;;;;;;;20.90;48.90;;;;;;4995352;28;19934;-70